Time;durP1;ratioP1;P1;durP2;ratioP2;P2;SDS_P1;SDS_P2;PMS_P1;PMS_P2;Temp;Humidity;BMP_temperature;BMP_pressure;BME280_temperature;BME280_humidity;BME280_pressure;Samples;Min_cycle;Max_cycle;Signal;HPM_P1;HPM_P2
2022/03/06 00:01:49;;;;;;;22.73;13.53;;;;;;;;;;5053918;28;20103;-59
2022/03/06 00:04:15;;;;;;;25.60;14.00;;;;;;;;;;5051446;28;20037;-59
2022/03/06 00:06:41;;;;;;;23.63;13.30;;;;;;;;;;5050367;28;20610;-59
2022/03/06 00:09:07;;;;;;;25.90;13.53;;;;;;;;;;5052885;28;20040;-58
2022/03/06 00:11:33;;;;;;;23.43;13.20;;;;;;;;;;5054765;28;20055;-58
2022/03/06 00:13:58;;;;;;;24.03;13.77;;;;;;;;;;5050750;28;20051;-58
2022/03/06 00:16:24;;;;;;;24.40;13.70;;;;;;;;;;5049626;28;20037;-58
2022/03/06 00:18:50;;;;;;;23.57;13.73;;;;;;;;;;5049148;28;20044;-58
2022/03/06 00:21:16;;;;;;;26.10;13.37;;;;;;;;;;5051326;28;20063;-58
2022/03/06 00:23:42;;;;;;;24.37;14.27;;;;;;;;;;5050776;28;20095;-58
2022/03/06 00:26:08;;;;;;;24.47;14.30;;;;;;;;;;5051812;28;20108;-59
2022/03/06 00:28:34;;;;;;;22.30;13.53;;;;;;;;;;5054625;28;20108;-58
2022/03/06 00:31:00;;;;;;;22.13;12.77;;;;;;;;;;5053595;28;20119;-58
2022/03/06 00:33:26;;;;;;;25.93;14.67;;;;;;;;;;5047530;28;20401;-58
2022/03/06 00:35:52;;;;;;;28.60;15.83;;;;;;;;;;5053986;28;20507;-58
2022/03/06 00:38:18;;;;;;;22.10;13.70;;;;;;;;;;5051661;28;20079;-58
2022/03/06 00:40:45;;;;;;;26.30;14.23;;;;;;;;;;5048971;28;20041;-58
2022/03/06 00:43:11;;;;;;;26.67;14.43;;;;;;;;;;5057527;28;20045;-58
2022/03/06 00:45:37;;;;;;;27.67;14.80;;;;;;;;;;5055723;28;20041;-58
2022/03/06 00:48:03;;;;;;;27.60;15.57;;;;;;;;;;5052594;28;20037;-58
2022/03/06 00:50:29;;;;;;;24.47;14.43;;;;;;;;;;5036104;28;20045;-58
2022/03/06 00:52:57;;;;;;;26.83;15.77;;;;;;;;;;5052630;28;20036;-58
2022/03/06 00:55:24;;;;;;;26.37;16.23;;;;;;;;;;5055106;28;20072;-58
2022/03/06 00:57:50;;;;;;;29.23;14.90;;;;;;;;;;5053679;28;20362;-58
2022/03/06 01:00:16;;;;;;;24.43;14.50;;;;;;;;;;5036134;28;20037;-58
2022/03/06 01:02:42;;;;;;;24.90;15.57;;;;;;;;;;5054093;28;20041;-58
2022/03/06 01:05:08;;;;;;;24.87;15.07;;;;;;;;;;5053995;28;20040;-59
2022/03/06 01:07:34;;;;;;;27.00;15.83;;;;;;;;;;5054661;28;20068;-59
2022/03/06 01:10:00;;;;;;;25.53;15.43;;;;;;;;;;5054027;28;20037;-58
2022/03/06 01:12:26;;;;;;;23.23;14.93;;;;;;;;;;5053370;28;20033;-58
2022/03/06 01:14:52;;;;;;;24.87;15.60;;;;;;;;;;5054176;28;20047;-58
2022/03/06 01:17:18;;;;;;;23.77;14.63;;;;;;;;;;5054013;28;20410;-59
2022/03/06 01:19:44;;;;;;;23.90;15.23;;;;;;;;;;5053102;28;20041;-58
2022/03/06 01:22:10;;;;;;;26.37;15.60;;;;;;;;;;5055275;28;20045;-58
2022/03/06 01:24:36;;;;;;;26.03;15.57;;;;;;;;;;5053835;28;20044;-58
2022/03/06 01:27:02;;;;;;;22.43;15.47;;;;;;;;;;5054405;28;20053;-58
2022/03/06 01:29:28;;;;;;;23.73;15.20;;;;;;;;;;5063835;28;20032;-58
2022/03/06 01:31:54;;;;;;;23.17;14.87;;;;;;;;;;5053586;28;20549;-59
2022/03/06 01:34:20;;;;;;;25.37;15.60;;;;;;;;;;5052292;28;20522;-58
2022/03/06 01:36:46;;;;;;;22.70;15.17;;;;;;;;;;5049440;28;20042;-59
2022/03/06 01:39:12;;;;;;;22.30;14.63;;;;;;;;;;5042108;28;20084;-58
2022/03/06 01:41:38;;;;;;;29.77;14.70;;;;;;;;;;5050941;28;20434;-58
2022/03/06 01:44:04;;;;;;;24.40;15.20;;;;;;;;;;5053211;28;20123;-58
2022/03/06 01:46:30;;;;;;;23.93;14.80;;;;;;;;;;5051328;28;20585;-58
2022/03/06 01:48:56;;;;;;;24.17;15.00;;;;;;;;;;5052759;28;20111;-58
2022/03/06 01:51:22;;;;;;;23.23;14.87;;;;;;;;;;5049783;28;20112;-58
2022/03/06 01:53:48;;;;;;;23.97;15.07;;;;;;;;;;5047668;28;20123;-58
2022/03/06 01:56:14;;;;;;;25.07;15.90;;;;;;;;;;5048745;28;20041;-58
2022/03/06 01:58:41;;;;;;;25.70;15.60;;;;;;;;;;5046211;28;20110;-58
2022/03/06 02:01:07;;;;;;;24.97;15.70;;;;;;;;;;5029979;28;20045;-59
2022/03/06 02:03:35;;;;;;;26.10;16.00;;;;;;;;;;5055887;28;20044;-58
2022/03/06 02:06:01;;;;;;;25.67;16.03;;;;;;;;;;5056089;28;20041;-58
2022/03/06 02:08:27;;;;;;;27.80;16.33;;;;;;;;;;5050734;28;20040;-58
2022/03/06 02:10:54;;;;;;;24.33;15.67;;;;;;;;;;5050481;28;20588;-58
2022/03/06 02:13:20;;;;;;;27.43;16.50;;;;;;;;;;5057629;28;20191;-58
2022/03/06 02:15:46;;;;;;;26.00;16.33;;;;;;;;;;5052439;28;20551;-58
2022/03/06 02:18:12;;;;;;;23.73;14.80;;;;;;;;;;5069305;28;20068;-58
2022/03/06 02:20:38;;;;;;;27.07;16.10;;;;;;;;;;5050348;28;20510;-58
2022/03/06 02:23:04;;;;;;;26.47;16.40;;;;;;;;;;5051708;28;20037;-58
2022/03/06 02:25:32;;;;;;;25.37;16.03;;;;;;;;;;5055450;28;21409;-58
2022/03/06 02:27:59;;;;;;;24.43;14.90;;;;;;;;;;5041573;28;20406;-58
2022/03/06 02:30:26;;;;;;;25.10;15.73;;;;;;;;;;5049820;28;20037;-58
2022/03/06 02:32:52;;;;;;;23.30;14.53;;;;;;;;;;5049540;28;20087;-58
2022/03/06 02:35:19;;;;;;;22.20;14.50;;;;;;;;;;5048325;28;20045;-58
2022/03/06 02:37:45;;;;;;;20.63;14.53;;;;;;;;;;5027317;28;20439;-58
2022/03/06 02:40:12;;;;;;;25.23;15.27;;;;;;;;;;5041051;28;20040;-58
2022/03/06 02:42:39;;;;;;;24.90;15.53;;;;;;;;;;5039730;28;20038;-58
2022/03/06 02:45:09;;;;;;;24.50;14.90;;;;;;;;;;5035842;28;20328;-58
2022/03/06 02:47:36;;;;;;;24.73;14.80;;;;;;;;;;5048235;28;20087;-58
2022/03/06 02:50:03;;;;;;;24.60;14.97;;;;;;;;;;5046808;28;20041;-57
2022/03/06 02:52:29;;;;;;;25.60;15.57;;;;;;;;;;5042423;28;20040;-58
2022/03/06 02:54:55;;;;;;;23.93;14.20;;;;;;;;;;5050199;28;20461;-58
2022/03/06 02:57:21;;;;;;;23.10;14.27;;;;;;;;;;5051609;28;20041;-57
2022/03/06 02:59:48;;;;;;;21.40;13.40;;;;;;;;;;5051250;28;20037;-57
2022/03/06 03:02:13;;;;;;;25.23;14.60;;;;;;;;;;5043149;28;20123;-57
2022/03/06 03:04:40;;;;;;;22.43;13.47;;;;;;;;;;5051739;28;20128;-58
2022/03/06 03:07:07;;;;;;;20.50;12.53;;;;;;;;;;5050746;28;20045;-58
2022/03/06 03:09:33;;;;;;;21.80;12.90;;;;;;;;;;5051242;28;20051;-58
2022/03/06 03:12:00;;;;;;;20.17;12.53;;;;;;;;;;5051774;28;20044;-58
2022/03/06 03:14:26;;;;;;;20.33;11.97;;;;;;;;;;5033940;28;20442;-57
2022/03/06 03:16:52;;;;;;;20.83;12.27;;;;;;;;;;5051306;28;20040;-57
2022/03/06 03:19:18;;;;;;;20.23;12.37;;;;;;;;;;5033430;28;20514;-58
2022/03/06 03:21:45;;;;;;;22.10;12.10;;;;;;;;;;5051237;28;20037;-58
2022/03/06 03:24:11;;;;;;;20.27;12.27;;;;;;;;;;5051665;28;20048;-58
2022/03/06 03:26:37;;;;;;;18.87;11.70;;;;;;;;;;5050743;28;20040;-58
2022/03/06 03:29:03;;;;;;;19.07;12.30;;;;;;;;;;5051164;28;20048;-57
2022/03/06 03:31:29;;;;;;;18.03;11.47;;;;;;;;;;5051932;28;20059;-58
2022/03/06 03:33:55;;;;;;;19.73;12.27;;;;;;;;;;5051151;28;20494;-58
2022/03/06 03:36:22;;;;;;;20.67;13.00;;;;;;;;;;5050644;28;20072;-57
2022/03/06 03:38:48;;;;;;;16.63;11.43;;;;;;;;;;5047997;28;20120;-58
2022/03/06 03:41:14;;;;;;;18.87;11.50;;;;;;;;;;5051490;28;20071;-57
2022/03/06 03:43:40;;;;;;;18.53;11.33;;;;;;;;;;5051321;28;20036;-57
2022/03/06 03:46:06;;;;;;;18.33;12.27;;;;;;;;;;5051820;28;20076;-58
2022/03/06 03:48:32;;;;;;;20.13;12.00;;;;;;;;;;5050554;28;20037;-58
2022/03/06 03:50:58;;;;;;;16.90;10.93;;;;;;;;;;5050755;28;20044;-58
2022/03/06 03:53:24;;;;;;;19.07;11.87;;;;;;;;;;5050734;28;20037;-58
2022/03/06 03:55:51;;;;;;;18.97;11.77;;;;;;;;;;5051254;28;20754;-58
2022/03/06 03:58:17;;;;;;;15.90;10.40;;;;;;;;;;5033230;28;20541;-58
2022/03/06 04:00:44;;;;;;;16.50;10.43;;;;;;;;;;5050728;28;20033;-58
2022/03/06 04:03:10;;;;;;;15.40;9.83;;;;;;;;;;5050521;28;20045;-58
2022/03/06 04:05:36;;;;;;;15.73;10.17;;;;;;;;;;5051782;28;20040;-58
2022/03/06 04:08:02;;;;;;;16.87;11.23;;;;;;;;;;5050358;28;20040;-57
2022/03/06 04:10:28;;;;;;;17.30;12.00;;;;;;;;;;5051425;28;20123;-57
2022/03/06 04:12:54;;;;;;;19.33;11.90;;;;;;;;;;5054856;28;20647;-57
2022/03/06 04:15:20;;;;;;;18.10;10.43;;;;;;;;;;5050866;28;20037;-57
2022/03/06 04:17:46;;;;;;;17.77;11.30;;;;;;;;;;5050749;28;20041;-58
2022/03/06 04:20:12;;;;;;;20.07;12.43;;;;;;;;;;5051123;28;20041;-58
2022/03/06 04:22:38;;;;;;;21.47;12.90;;;;;;;;;;5050713;28;20116;-58
2022/03/06 04:25:04;;;;;;;18.30;11.33;;;;;;;;;;5050685;28;20125;-58
2022/03/06 04:27:30;;;;;;;16.57;11.13;;;;;;;;;;5049822;28;20040;-58
2022/03/06 04:29:56;;;;;;;19.10;10.93;;;;;;;;;;5050829;28;20095;-58
2022/03/06 04:32:23;;;;;;;17.97;10.93;;;;;;;;;;5050250;28;20041;-58
2022/03/06 04:34:49;;;;;;;17.73;11.00;;;;;;;;;;5049450;28;20073;-58
2022/03/06 04:37:15;;;;;;;18.03;10.80;;;;;;;;;;5050796;28;20037;-58
2022/03/06 04:39:41;;;;;;;17.27;11.03;;;;;;;;;;5036912;28;20042;-58
2022/03/06 04:42:07;;;;;;;17.30;12.00;;;;;;;;;;5047304;28;20661;-57
2022/03/06 04:44:33;;;;;;;16.90;10.43;;;;;;;;;;5051919;28;20037;-58
2022/03/06 04:46:59;;;;;;;17.33;11.20;;;;;;;;;;5050526;28;20044;-58
2022/03/06 04:49:25;;;;;;;16.57;11.17;;;;;;;;;;5050228;28;20124;-58
2022/03/06 04:51:51;;;;;;;19.10;10.77;;;;;;;;;;5050956;28;20048;-57
2022/03/06 04:54:18;;;;;;;17.23;10.67;;;;;;;;;;5054047;28;20095;-58
2022/03/06 04:56:44;;;;;;;13.77;9.87;;;;;;;;;;5047434;28;20126;-58
2022/03/06 04:59:10;;;;;;;14.87;9.90;;;;;;;;;;5049726;28;20080;-58
2022/03/06 05:01:36;;;;;;;13.13;9.13;;;;;;;;;;5053745;28;20320;-58
2022/03/06 05:04:02;;;;;;;14.20;10.50;;;;;;;;;;5035002;28;20041;-58
2022/03/06 05:06:28;;;;;;;14.13;10.47;;;;;;;;;;5049780;28;20505;-58
2022/03/06 05:08:54;;;;;;;14.10;9.50;;;;;;;;;;5049697;28;20036;-58
2022/03/06 05:11:20;;;;;;;14.17;10.00;;;;;;;;;;5064259;22;20045;-58
2022/03/06 05:13:46;;;;;;;16.20;10.27;;;;;;;;;;5052374;28;20041;-58
2022/03/06 05:16:13;;;;;;;14.37;10.23;;;;;;;;;;5053661;28;20045;-60
2022/03/06 05:18:39;;;;;;;15.50;9.67;;;;;;;;;;5054094;28;20490;-58
2022/03/06 05:21:05;;;;;;;14.00;9.40;;;;;;;;;;5047499;28;20072;-59
2022/03/06 05:23:31;;;;;;;14.40;9.30;;;;;;;;;;5034238;28;20491;-58
2022/03/06 05:25:57;;;;;;;17.90;10.33;;;;;;;;;;5034609;28;20044;-58
2022/03/06 05:28:25;;;;;;;12.53;9.30;;;;;;;;;;5033269;28;20034;-58
2022/03/06 05:30:51;;;;;;;13.97;9.40;;;;;;;;;;5034330;28;20044;-58
2022/03/06 05:33:17;;;;;;;15.70;10.13;;;;;;;;;;5032929;28;21173;-58
2022/03/06 05:35:43;;;;;;;13.10;9.23;;;;;;;;;;5034338;28;20141;-58
2022/03/06 05:38:09;;;;;;;16.67;10.13;;;;;;;;;;5031080;28;20116;-58
2022/03/06 05:40:35;;;;;;;17.33;10.10;;;;;;;;;;5030374;28;20048;-58
2022/03/06 05:43:01;;;;;;;12.37;9.33;;;;;;;;;;5029092;28;20034;-58
2022/03/06 05:45:27;;;;;;;15.40;10.30;;;;;;;;;;5033055;28;20521;-58
2022/03/06 05:47:53;;;;;;;12.47;8.97;;;;;;;;;;5032194;28;20034;-58
2022/03/06 05:50:19;;;;;;;10.63;8.70;;;;;;;;;;5033370;28;20088;-58
2022/03/06 05:52:45;;;;;;;15.47;10.00;;;;;;;;;;5034073;28;20038;-58
2022/03/06 05:55:11;;;;;;;13.70;8.80;;;;;;;;;;5033527;28;20038;-58
2022/03/06 05:57:37;;;;;;;15.97;8.53;;;;;;;;;;5033187;28;20138;-58
2022/03/06 06:00:08;;;;;;;10.80;8.33;;;;;;;;;;5033143;28;20038;-59
2022/03/06 06:02:34;;;;;;;13.73;9.10;;;;;;;;;;5013940;28;20081;-59
2022/03/06 06:05:00;;;;;;;14.30;8.77;;;;;;;;;;5023932;28;20073;-58
2022/03/06 06:07:26;;;;;;;12.90;8.60;;;;;;;;;;5032068;28;20044;-58
2022/03/06 06:09:52;;;;;;;12.50;8.60;;;;;;;;;;5032975;28;20029;-58
2022/03/06 06:12:18;;;;;;;13.37;8.03;;;;;;;;;;5033319;28;20124;-58
2022/03/06 06:14:44;;;;;;;11.77;8.03;;;;;;;;;;5033229;28;20047;-58
2022/03/06 06:17:10;;;;;;;13.37;7.97;;;;;;;;;;5032508;28;20142;-58
2022/03/06 06:19:36;;;;;;;12.33;8.87;;;;;;;;;;5032661;28;20522;-58
2022/03/06 06:22:02;;;;;;;9.27;6.80;;;;;;;;;;5032756;28;20041;-58
2022/03/06 06:24:29;;;;;;;8.87;7.03;;;;;;;;;;5032274;28;20045;-58
2022/03/06 06:26:55;;;;;;;9.43;7.90;;;;;;;;;;5033164;28;20111;-58
2022/03/06 06:29:22;;;;;;;12.43;7.37;;;;;;;;;;5032956;28;20431;-58
2022/03/06 06:31:48;;;;;;;10.73;6.33;;;;;;;;;;5040008;28;20076;-58
2022/03/06 06:34:14;;;;;;;8.73;6.63;;;;;;;;;;5032316;28;20399;-58
2022/03/06 06:36:40;;;;;;;8.87;6.70;;;;;;;;;;5032435;28;20030;-59
2022/03/06 06:39:09;;;;;;;10.50;7.03;;;;;;;;;;5031787;28;20120;-58
2022/03/06 06:41:35;;;;;;;8.17;6.20;;;;;;;;;;5032917;28;20084;-58
2022/03/06 06:44:01;;;;;;;10.57;6.37;;;;;;;;;;5032682;28;20493;-58
2022/03/06 06:46:27;;;;;;;10.10;7.00;;;;;;;;;;5032927;28;20183;-58
2022/03/06 06:48:53;;;;;;;11.30;6.00;;;;;;;;;;5031199;28;20124;-58
2022/03/06 06:51:19;;;;;;;8.10;6.00;;;;;;;;;;5032285;28;20041;-58
2022/03/06 06:53:45;;;;;;;9.97;5.83;;;;;;;;;;5032343;28;20100;-58
2022/03/06 06:56:11;;;;;;;10.47;6.30;;;;;;;;;;5032609;28;20038;-58
2022/03/06 06:58:37;;;;;;;8.73;6.30;;;;;;;;;;5031600;28;20068;-59
2022/03/06 07:01:03;;;;;;;8.03;5.63;;;;;;;;;;5032244;28;20037;-59
2022/03/06 07:03:29;;;;;;;8.67;5.60;;;;;;;;;;5032309;28;20056;-58
2022/03/06 07:05:56;;;;;;;9.17;5.67;;;;;;;;;;5032039;28;20133;-58
2022/03/06 07:08:22;;;;;;;6.77;5.10;;;;;;;;;;5028695;28;20044;-58
2022/03/06 07:10:49;;;;;;;7.07;5.37;;;;;;;;;;5029796;28;20059;-58
2022/03/06 07:13:15;;;;;;;11.07;6.47;;;;;;;;;;5028667;28;20048;-58
2022/03/06 07:15:40;;;;;;;7.70;5.90;;;;;;;;;;5032082;28;20037;-58
2022/03/06 07:18:07;;;;;;;8.50;6.00;;;;;;;;;;5032068;28;20034;-59
2022/03/06 07:20:33;;;;;;;10.90;5.70;;;;;;;;;;5031870;28;20038;-58
2022/03/06 07:22:59;;;;;;;7.97;5.70;;;;;;;;;;5032266;28;20042;-58
2022/03/06 07:25:25;;;;;;;7.43;4.93;;;;;;;;;;5031977;28;20041;-58
2022/03/06 07:27:51;;;;;;;9.20;5.87;;;;;;;;;;5029019;28;20060;-58
2022/03/06 07:30:17;;;;;;;6.03;5.03;;;;;;;;;;5031576;28;20041;-58
2022/03/06 07:32:45;;;;;;;8.40;5.10;;;;;;;;;;5029098;28;20030;-58
2022/03/06 07:35:11;;;;;;;5.87;4.70;;;;;;;;;;5012339;28;20096;-58
2022/03/06 07:37:37;;;;;;;7.00;5.33;;;;;;;;;;5023684;28;20041;-58
2022/03/06 07:40:03;;;;;;;8.80;5.10;;;;;;;;;;5026856;28;20041;-58
2022/03/06 07:42:30;;;;;;;8.27;4.93;;;;;;;;;;5031214;28;20087;-58
2022/03/06 07:44:56;;;;;;;6.33;5.50;;;;;;;;;;5030783;28;20559;-58
2022/03/06 07:47:22;;;;;;;8.63;5.10;;;;;;;;;;5030364;28;20129;-58
2022/03/06 07:49:48;;;;;;;7.27;4.87;;;;;;;;;;5027557;28;20029;-58
2022/03/06 07:52:14;;;;;;;8.43;4.90;;;;;;;;;;5015020;28;20255;-58
2022/03/06 07:54:40;;;;;;;8.53;4.53;;;;;;;;;;5031385;28;20045;-58
2022/03/06 07:57:06;;;;;;;8.13;5.27;;;;;;;;;;5031915;28;20099;-58
2022/03/06 07:59:32;;;;;;;10.70;4.93;;;;;;;;;;5030192;28;20045;-58
2022/03/06 08:01:58;;;;;;;8.73;4.83;;;;;;;;;;5031586;28;20057;-58
2022/03/06 08:04:24;;;;;;;7.10;4.97;;;;;;;;;;5031923;28;20107;-58
2022/03/06 08:06:50;;;;;;;9.43;4.60;;;;;;;;;;5031803;28;20503;-59
2022/03/06 08:09:16;;;;;;;10.90;4.80;;;;;;;;;;5030265;28;20128;-58
2022/03/06 08:11:42;;;;;;;6.70;3.77;;;;;;;;;;5030593;28;20040;-58
2022/03/06 08:14:08;;;;;;;6.27;5.13;;;;;;;;;;5036000;28;20152;-58
2022/03/06 08:16:34;;;;;;;6.87;4.30;;;;;;;;;;5028009;28;20120;-58
2022/03/06 08:19:00;;;;;;;7.60;4.47;;;;;;;;;;5027424;28;20053;-58
2022/03/06 08:21:26;;;;;;;9.80;4.87;;;;;;;;;;5029191;28;20034;-58
2022/03/06 08:23:52;;;;;;;7.87;4.70;;;;;;;;;;5025539;28;20103;-58
2022/03/06 08:26:19;;;;;;;7.83;4.90;;;;;;;;;;5028747;28;20048;-58
2022/03/06 08:28:45;;;;;;;5.17;3.67;;;;;;;;;;5030403;28;20044;-58
2022/03/06 08:31:11;;;;;;;5.73;3.77;;;;;;;;;;5030753;28;20038;-58
2022/03/06 08:33:37;;;;;;;7.30;4.77;;;;;;;;;;5031279;28;20038;-58
2022/03/06 08:36:03;;;;;;;7.57;3.93;;;;;;;;;;5024444;28;20045;-59
2022/03/06 08:38:29;;;;;;;7.60;4.00;;;;;;;;;;5028494;28;20510;-58
2022/03/06 08:40:55;;;;;;;6.40;4.43;;;;;;;;;;5029950;28;20479;-58
2022/03/06 08:43:21;;;;;;;5.93;4.03;;;;;;;;;;5029824;28;20048;-58
2022/03/06 08:45:47;;;;;;;5.00;4.10;;;;;;;;;;5030239;28;20040;-58
2022/03/06 08:48:13;;;;;;;6.18;4.38;;;;;;;;;;5028580;28;20065;-58
2022/03/06 08:50:39;;;;;;;5.78;3.83;;;;;;;;;;5032202;28;20033;-58
2022/03/06 08:53:06;;;;;;;4.53;3.47;;;;;;;;;;5030711;28;20499;-58
2022/03/06 08:55:32;;;;;;;7.32;3.78;;;;;;;;;;5033282;28;20069;-58
2022/03/06 08:57:58;;;;;;;6.30;4.03;;;;;;;;;;5034450;28;20091;-58
2022/03/06 09:00:24;;;;;;;4.75;3.78;;;;;;;;;;5031839;28;20503;-58
2022/03/06 09:02:50;;;;;;;3.63;3.33;;;;;;;;;;5031441;28;20037;-58
2022/03/06 09:05:16;;;;;;;5.75;3.92;;;;;;;;;;5032610;28;20049;-58
2022/03/06 09:07:42;;;;;;;6.68;4.35;;;;;;;;;;5033538;28;20029;-58
2022/03/06 09:10:09;;;;;;;5.63;4.40;;;;;;;;;;5030853;28;20467;-58
2022/03/06 09:12:35;;;;;;;5.70;3.55;;;;;;;;;;5036887;28;20060;-59
2022/03/06 09:15:01;;;;;;;5.75;3.28;;;;;;;;;;5037065;28;20120;-59
2022/03/06 09:17:27;;;;;;;6.00;3.85;;;;;;;;;;5038955;28;20562;-58
2022/03/06 09:19:53;;;;;;;5.18;3.75;;;;;;;;;;5030002;28;20179;-59
2022/03/06 09:22:19;;;;;;;6.13;4.10;;;;;;;;;;5033372;28;20041;-59
2022/03/06 09:24:45;;;;;;;4.10;3.42;;;;;;;;;;5032896;28;20152;-58
2022/03/06 09:27:11;;;;;;;5.72;4.18;;;;;;;;;;5031963;28;20475;-58
2022/03/06 09:29:37;;;;;;;5.00;3.92;;;;;;;;;;5036047;28;20029;-58
2022/03/06 09:32:03;;;;;;;5.30;3.92;;;;;;;;;;5031987;28;20120;-58
2022/03/06 09:34:29;;;;;;;5.32;3.55;;;;;;;;;;5036798;28;20045;-58
2022/03/06 09:36:55;;;;;;;7.15;4.07;;;;;;;;;;5032833;28;20041;-59
2022/03/06 09:39:21;;;;;;;6.25;3.25;;;;;;;;;;5037047;28;20137;-59
2022/03/06 09:41:49;;;;;;;5.10;3.88;;;;;;;;;;5031710;28;20029;-58
2022/03/06 09:44:15;;;;;;;6.53;4.03;;;;;;;;;;5034377;28;20045;-58
2022/03/06 09:46:41;;;;;;;5.65;3.67;;;;;;;;;;5033157;28;20034;-58
2022/03/06 09:49:08;;;;;;;7.05;3.67;;;;;;;;;;5031606;28;20037;-58
2022/03/06 09:51:40;;;;;;;6.25;4.07;;;;;;;;;;5033143;28;20095;-58
2022/03/06 09:54:07;;;;;;;6.10;4.07;;;;;;;;;;5033295;28;20042;-58
2022/03/06 09:56:33;;;;;;;5.35;4.00;;;;;;;;;;5032508;28;20048;-58
2022/03/06 09:58:59;;;;;;;3.83;3.22;;;;;;;;;;5030700;28;20116;-58
2022/03/06 10:01:25;;;;;;;6.18;3.83;;;;;;;;;;5030284;28;20582;-58
2022/03/06 10:03:51;;;;;;;6.25;4.20;;;;;;;;;;5032334;28;20045;-58
2022/03/06 10:06:17;;;;;;;5.97;4.00;;;;;;;;;;5039681;28;20033;-58
2022/03/06 10:08:43;;;;;;;5.22;3.70;;;;;;;;;;5031463;28;20033;-58
2022/03/06 10:11:10;;;;;;;8.23;4.25;;;;;;;;;;5032019;28;20037;-58
2022/03/06 10:13:37;;;;;;;7.25;3.75;;;;;;;;;;5032529;28;20114;-58
2022/03/06 10:16:13;;;;;;;5.53;4.22;;;;;;;;;;5033085;28;20033;-58
2022/03/06 10:18:52;;;;;;;6.57;4.03;;;;;;;;;;5038892;28;20052;-58
2022/03/06 10:21:20;;;;;;;5.78;3.78;;;;;;;;;;5032985;28;20061;-58
2022/03/06 10:23:47;;;;;;;6.90;3.95;;;;;;;;;;5030545;28;20399;-58
2022/03/06 10:26:14;;;;;;;6.15;4.38;;;;;;;;;;5032981;28;20037;-58
2022/03/06 10:28:51;;;;;;;6.07;4.07;;;;;;;;;;5032513;28;20041;-58
2022/03/06 10:31:18;;;;;;;5.22;3.65;;;;;;;;;;5032088;28;20079;-58
2022/03/06 10:33:57;;;;;;;7.47;4.57;;;;;;;;;;5045220;28;20493;-58
2022/03/06 10:36:29;;;;;;;5.28;4.13;;;;;;;;;;5022417;28;20045;-58
2022/03/06 10:38:55;;;;;;;7.15;3.67;;;;;;;;;;5032753;28;20034;-58
2022/03/06 10:41:21;;;;;;;5.28;4.00;;;;;;;;;;5031021;28;20052;-58
2022/03/06 10:43:52;;;;;;;6.70;4.05;;;;;;;;;;5032157;28;20042;-58
2022/03/06 10:46:19;;;;;;;5.90;4.00;;;;;;;;;;5041520;28;20109;-58
2022/03/06 10:49:18;;;;;;;6.53;4.10;;;;;;;;;;5045560;28;20038;-58
2022/03/06 10:51:45;;;;;;;5.55;3.72;;;;;;;;;;4998603;28;20050;-58
2022/03/06 10:54:14;;;;;;;5.43;3.40;;;;;;;;;;5031487;28;20487;-58
2022/03/06 10:56:40;;;;;;;3.65;3.08;;;;;;;;;;5032826;28;20045;-58
2022/03/06 10:59:07;;;;;;;4.05;3.65;;;;;;;;;;5031467;28;20126;-58
2022/03/06 11:01:33;;;;;;;5.30;3.10;;;;;;;;;;5034141;28;20041;-58
2022/03/06 11:04:01;;;;;;;4.97;3.20;;;;;;;;;;5047005;28;20045;-58
2022/03/06 11:06:28;;;;;;;5.50;3.47;;;;;;;;;;5028746;28;20527;-59
2022/03/06 11:08:54;;;;;;;4.65;3.25;;;;;;;;;;5031123;28;20120;-58
2022/03/06 11:11:21;;;;;;;4.35;2.85;;;;;;;;;;5060522;22;20044;-59
2022/03/06 11:13:47;;;;;;;5.00;3.17;;;;;;;;;;5091228;28;20086;-59
2022/03/06 11:16:14;;;;;;;4.97;2.53;;;;;;;;;;5091046;28;20498;-59
2022/03/06 11:18:40;;;;;;;2.75;2.55;;;;;;;;;;5090500;28;20119;-59
2022/03/06 11:21:06;;;;;;;3.63;3.28;;;;;;;;;;5088966;28;20071;-59
2022/03/06 11:23:35;;;;;;;5.00;3.20;;;;;;;;;;5093096;28;20040;-59
2022/03/06 11:26:10;;;;;;;3.40;2.63;;;;;;;;;;5110301;28;20045;-59
2022/03/06 11:28:54;;;;;;;4.18;2.53;;;;;;;;;;5110904;28;20038;-59
2022/03/06 11:31:22;;;;;;;4.50;2.80;;;;;;;;;;5110013;28;20044;-59
2022/03/06 11:33:56;;;;;;;6.05;3.22;;;;;;;;;;5105818;28;20067;-59
2022/03/06 11:36:23;;;;;;;6.75;2.95;;;;;;;;;;5106181;28;20066;-59
2022/03/06 11:38:51;;;;;;;4.72;3.05;;;;;;;;;;5099748;28;20041;-59
2022/03/06 11:41:17;;;;;;;7.18;2.90;;;;;;;;;;5106726;28;20063;-59
2022/03/06 11:43:46;;;;;;;5.47;2.47;;;;;;;;;;5098133;28;20050;-59
2022/03/06 11:46:15;;;;;;;4.45;3.15;;;;;;;;;;5110967;28;20096;-60
2022/03/06 11:48:44;;;;;;;3.83;2.70;;;;;;;;;;5111878;28;20088;-59
2022/03/06 11:51:19;;;;;;;5.95;3.10;;;;;;;;;;5111910;28;20035;-59
2022/03/06 11:54:02;;;;;;;3.80;3.00;;;;;;;;;;5109062;28;20035;-59
2022/03/06 11:56:42;;;;;;;4.47;2.80;;;;;;;;;;5103507;28;20040;-59
2022/03/06 11:59:09;;;;;;;3.67;2.50;;;;;;;;;;5111073;28;20050;-59
2022/03/06 12:01:34;;;;;;;3.17;2.38;;;;;;;;;;5110325;28;20036;-59
2022/03/06 12:04:01;;;;;;;5.13;3.38;;;;;;;;;;5111335;28;20050;-59
2022/03/06 12:06:28;;;;;;;4.88;2.72;;;;;;;;;;5111689;28;20085;-59
2022/03/06 12:08:55;;;;;;;4.88;2.63;;;;;;;;;;5111649;28;20157;-59
2022/03/06 12:11:21;;;;;;;5.32;2.60;;;;;;;;;;5110205;28;20031;-59
2022/03/06 12:13:50;;;;;;;4.53;2.97;;;;;;;;;;5111421;28;20118;-59
2022/03/06 12:16:16;;;;;;;4.93;3.20;;;;;;;;;;5112043;28;20040;-59
2022/03/06 12:19:01;;;;;;;5.60;2.80;;;;;;;;;;5111198;28;20038;-59
2022/03/06 12:21:36;;;;;;;6.18;3.38;;;;;;;;;;5111194;28;20042;-59
2022/03/06 12:24:12;;;;;;;7.50;3.15;;;;;;;;;;5114638;28;20052;-59
2022/03/06 12:26:45;;;;;;;3.10;2.80;;;;;;;;;;5116188;28;20077;-60
2022/03/06 12:29:31;;;;;;;5.07;3.30;;;;;;;;;;5115444;28;20031;-59
2022/03/06 12:31:56;;;;;;;5.20;2.70;;;;;;;;;;5109768;28;20035;-59
2022/03/06 12:34:43;;;;;;;6.15;3.30;;;;;;;;;;5114647;28;20032;-59
2022/03/06 12:37:09;;;;;;;5.75;3.03;;;;;;;;;;5115735;28;20059;-59
2022/03/06 12:39:35;;;;;;;7.25;3.53;;;;;;;;;;5115323;28;20412;-59
2022/03/06 12:42:01;;;;;;;6.45;3.30;;;;;;;;;;5114489;28;20093;-59
2022/03/06 12:44:31;;;;;;;4.05;3.08;;;;;;;;;;5112993;28;20040;-59
2022/03/06 12:46:57;;;;;;;5.68;3.22;;;;;;;;;;5113085;28;20036;-59
2022/03/06 12:49:23;;;;;;;6.45;3.38;;;;;;;;;;5111961;28;20033;-59
2022/03/06 12:51:51;;;;;;;5.82;3.05;;;;;;;;;;5114016;28;20090;-59
2022/03/06 12:54:18;;;;;;;7.03;3.50;;;;;;;;;;5112522;28;20036;-59
2022/03/06 12:56:44;;;;;;;5.10;3.50;;;;;;;;;;5113977;28;20047;-59
2022/03/06 12:59:15;;;;;;;5.00;3.05;;;;;;;;;;5114436;28;20040;-59
2022/03/06 13:01:42;;;;;;;3.90;2.90;;;;;;;;;;5107055;28;20485;-59
2022/03/06 13:04:08;;;;;;;4.05;2.75;;;;;;;;;;5104208;28;20059;-60
2022/03/06 13:06:35;;;;;;;5.97;3.22;;;;;;;;;;5102135;28;20126;-59
2022/03/06 13:09:01;;;;;;;4.40;3.17;;;;;;;;;;5104907;28;20028;-60
2022/03/06 13:11:27;;;;;;;4.75;3.08;;;;;;;;;;5095285;28;20524;-59
2022/03/06 13:14:00;;;;;;;5.10;3.42;;;;;;;;;;5101438;28;20040;-59
2022/03/06 13:16:26;;;;;;;7.85;3.42;;;;;;;;;;5114610;28;20455;-59
2022/03/06 13:18:57;;;;;;;6.00;3.45;;;;;;;;;;5114118;28;20454;-59
2022/03/06 13:21:25;;;;;;;3.63;2.67;;;;;;;;;;5115324;28;20122;-59
2022/03/06 13:23:58;;;;;;;5.25;3.67;;;;;;;;;;5114393;28;20048;-59
2022/03/06 13:26:25;;;;;;;5.43;3.50;;;;;;;;;;5114934;28;20067;-59
2022/03/06 13:28:52;;;;;;;6.32;3.17;;;;;;;;;;5114144;28;20031;-59
2022/03/06 13:31:18;;;;;;;4.38;3.10;;;;;;;;;;5114795;28;20039;-60
2022/03/06 13:33:44;;;;;;;4.97;3.30;;;;;;;;;;5113681;28;20028;-59
2022/03/06 13:36:16;;;;;;;6.43;3.45;;;;;;;;;;5114386;28;20043;-60
2022/03/06 13:38:42;;;;;;;6.47;3.92;;;;;;;;;;5113789;28;20510;-59
2022/03/06 13:41:11;;;;;;;5.78;3.25;;;;;;;;;;5113305;28;20079;-59
2022/03/06 13:43:38;;;;;;;7.50;3.55;;;;;;;;;;5114689;28;20316;-59
2022/03/06 13:46:04;;;;;;;4.03;3.45;;;;;;;;;;5114091;28;20078;-59
2022/03/06 13:48:34;;;;;;;5.55;3.10;;;;;;;;;;5113976;28;20042;-59
2022/03/06 13:51:00;;;;;;;7.78;3.70;;;;;;;;;;5114613;28;20040;-60
2022/03/06 13:53:26;;;;;;;5.43;3.75;;;;;;;;;;5113570;28;20470;-60
2022/03/06 13:56:04;;;;;;;5.18;3.22;;;;;;;;;;5114229;28;20489;-59
2022/03/06 13:58:43;;;;;;;6.50;3.45;;;;;;;;;;5114065;28;20035;-60
2022/03/06 14:01:12;;;;;;;4.90;3.63;;;;;;;;;;5114056;28;20122;-59
2022/03/06 14:03:40;;;;;;;5.72;3.40;;;;;;;;;;5113575;28;20027;-59
2022/03/06 14:06:07;;;;;;;5.35;3.83;;;;;;;;;;5114302;28;20499;-59
2022/03/06 14:08:38;;;;;;;6.57;3.75;;;;;;;;;;5113530;28;20118;-59
2022/03/06 14:11:05;;;;;;;6.95;3.42;;;;;;;;;;5114150;27;20084;-59
2022/03/06 14:13:38;;;;;;;4.32;3.63;;;;;;;;;;5113801;28;20036;-59
2022/03/06 14:16:11;;;;;;;6.82;3.63;;;;;;;;;;5113702;28;20420;-59
2022/03/06 14:18:37;;;;;;;6.88;4.15;;;;;;;;;;5110846;28;20388;-60
2022/03/06 14:21:08;;;;;;;5.35;3.45;;;;;;;;;;5103547;28;20042;-60
2022/03/06 14:23:34;;;;;;;4.03;3.25;;;;;;;;;;5106947;28;20381;-60
2022/03/06 14:26:00;;;;;;;6.63;3.40;;;;;;;;;;5111027;28;20084;-59
2022/03/06 14:28:26;;;;;;;5.32;3.47;;;;;;;;;;5113097;28;20031;-60
2022/03/06 14:30:52;;;;;;;5.60;3.45;;;;;;;;;;5106526;28;20031;-60